Vanquish — PHCU — position and weather

sailwx.info

Track history (hours):
 
Tides and Currents Weather Stations Pressure Air Temp Water Temp Dewpoint Dewpoint Depression Visibility Wind Speed Wind Dir Waves Ship Positions

Vanquish

Last reported at 2014-Nov-21 21:33 UTC. Time now 2014-Nov-22 00:18 UTC.
Position N 51°22' W 003°09'.

MMSI: 246138952.

Date/timePositionNaut miles runAvg speedWind from/ knotsBaromVisibWave heightAir tempDewpointWater temp
2014-Nov-21 21:33N 51°22' W 003°09'1616.0
2014-Nov-21 20:34N 51°30' W 002°47'3 2.8
2014-Nov-21 19:33N 51°30' W 002°42'0 0.0
2014-Nov-21 18:33N 51°30' W 002°42'0 0.0
2014-Nov-21 17:33N 51°30' W 002°42'0 0.0
2014-Nov-21 16:33N 51°30' W 002°42'0 0.0
2014-Nov-21 15:33N 51°30' W 002°42'0 0.0
2014-Nov-21 14:33N 51°30' W 002°42'0 0.0
2014-Nov-21 13:33N 51°30' W 002°42'0 0.0
2014-Nov-21 12:33N 51°30' W 002°42'0 0.0
2014-Nov-21 11:33N 51°30' W 002°42'0 0.0
2014-Nov-21 10:33N 51°30' W 002°42'0 0.0
2014-Nov-21 09:33N 51°30' W 002°42'0 0.0
2014-Nov-21 08:33N 51°30' W 002°42'0 0.0
2014-Nov-21 07:33N 51°30' W 002°42'0 0.0
2014-Nov-21 06:33N 51°30' W 002°42'0 0.0
2014-Nov-21 05:33N 51°30' W 002°42'1 0.6
2014-Nov-21 04:33N 51°31' W 002°43'1110.8
2014-Nov-21 03:33N 51°27' W 002°60'104 9.2
2014-Nov-20 16:17N 52°12' W 005°31'8913.2
2014-Nov-20 09:33N 53°40' W 005°53'1312.7
2014-Nov-20 08:33N 53°52' W 005°59'1111.1
2014-Nov-20 07:33N 54°02' W 006°08'3 0.3
2014-Nov-19 21:18N 54°04' W 006°12'911.2
2014-Nov-19 20:31N 53°59' W 006°01'18311.2
2014-Nov-19 04:12N 51°22' W 003°24'812.2
2014-Nov-19 03:33N 51°23' W 003°12'1211.9
2014-Nov-19 02:33N 51°27' W 002°54'8 7.6
2014-Nov-19 01:33N 51°30' W 002°43'0 0.3
2014-Nov-19 00:32N 51°30' W 002°42'0 0.0
2014-Nov-18 23:32N 51°30' W 002°42'0 0.0
2014-Nov-18 22:32N 51°30' W 002°42'0 0.0
2014-Nov-18 21:32N 51°30' W 002°42'0 0.0
2014-Nov-18 20:32N 51°30' W 002°42'0 0.0
2014-Nov-18 19:32N 51°30' W 002°42'0 0.0
2014-Nov-18 18:32N 51°30' W 002°42'1 0.6
2014-Nov-18 17:34N 51°30' W 002°43'10 9.1
2014-Nov-18 16:26N 51°27' W 002°59'1112.0
2014-Nov-18 15:33N 51°21' W 003°13'169 8.9
2014-Nov-17 20:31N 53°40' W 005°52'1313.2
2014-Nov-17 19:33N 53°52' W 005°58'1211.8
2014-Nov-17 18:32N 54°03' W 006°08'0 0.0
2014-Nov-16 18:18N 54°02' W 006°08'811.2
2014-Nov-16 17:33N 53°55' W 005°60'18110.5
2014-Nov-16 00:25N 51°22' W 003°23'1011.7
2014-Nov-15 23:34N 51°24' W 003°07'1211.5
2014-Nov-15 22:34N 51°29' W 002°50'5 4.9
2014-Nov-15 21:33N 51°30' W 002°42'0 0.2
2014-Nov-15 20:34N 51°30' W 002°42'0 0.0
2014-Nov-15 19:31N 51°30' W 002°42'0 0.0
2014-Nov-15 18:31N 51°30' W 002°42'0 0.0
2014-Nov-15 17:33N 51°30' W 002°42'0 0.0
2014-Nov-15 16:31N 51°30' W 002°42'0 0.0
2014-Nov-15 15:34N 51°30' W 002°42'0 0.0
2014-Nov-15 14:30N 51°30' W 002°42'0 0.0
2014-Nov-15 13:31N 51°30' W 002°42'0 0.0
2014-Nov-15 12:34N 51°30' W 002°42'0 0.0
2014-Nov-15 11:33N 51°30' W 002°42'0 0.0
2014-Nov-15 10:31N 51°30' W 002°42'0 0.0
2014-Nov-15 09:33N 51°30' W 002°42'0 0.0
2014-Nov-15 08:34N 51°30' W 002°42'0 0.0
2014-Nov-15 07:33N 51°30' W 002°42'0 0.0
2014-Nov-15 06:34N 51°30' W 002°42'0 0.0
2014-Nov-15 05:33N 51°30' W 002°42'0 0.0
2014-Nov-15 04:34N 51°30' W 002°42'0 0.0
2014-Nov-15 03:34N 51°30' W 002°42'0 0.0
2014-Nov-15 02:33N 51°30' W 002°42'0 0.0
2014-Nov-15 01:33N 51°30' W 002°42'0 0.0
2014-Nov-15 00:30N 51°30' W 002°42'0 0.0
2014-Nov-14 23:33N 51°30' W 002°42'0 0.0
2014-Nov-14 22:34N 51°30' W 002°42'0 0.4
2014-Nov-14 21:33N 51°30' W 002°43'7 6.7
2014-Nov-14 20:33N 51°28' W 002°53'1413.6
2014-Nov-14 19:33N 51°21' W 003°12'7 7.1
2014-Nov-14 18:33N 51°21' W 003°23'161 7.6
2014-Nov-13 21:12N 53°35' W 005°50'812.0
2014-Nov-13 20:33N 53°43' W 005°54'1211.8
2014-Nov-13 19:33N 53°54' W 005°59'1111.1
2014-Nov-13 18:33N 54°03' W 006°10'1 0.1
2014-Nov-12 20:33N 54°04' W 006°12'1111.4
2014-Nov-12 19:33N 53°55' W 005°60'18310.1
2014-Nov-12 01:33N 51°21' W 003°18'1414.2
2014-Nov-12 00:34N 51°27' W 002°57'9 9.4
2014-Nov-11 23:33N 51°30' W 002°42'0 0.3
2014-Nov-11 22:33N 51°30' W 002°42'0 0.0
2014-Nov-11 21:33N 51°30' W 002°42'  
Track history (hours):
 
Tides and Currents Weather Stations Pressure Air Temp Water Temp Dewpoint Dewpoint Depression Visibility Wind Speed Wind Dir Waves Ship Positions

Vanquish

Last reported at 2014-Nov-21 21:33 UTC. Time now 2014-Nov-22 00:18 UTC.
Position N 51°22' W 003°09'.

MMSI: 246138952.

Date/timePositionNaut miles runAvg speedWind from/ knotsBaromVisibWave heightAir tempDewpointWater temp
2014-Nov-21 21:33N 51°22' W 003°09'1616.0
2014-Nov-21 20:34N 51°30' W 002°47'3 2.8
2014-Nov-21 19:33N 51°30' W 002°42'0 0.0
2014-Nov-21 18:33N 51°30' W 002°42'0 0.0
2014-Nov-21 17:33N 51°30' W 002°42'0 0.0
2014-Nov-21 16:33N 51°30' W 002°42'0 0.0
2014-Nov-21 15:33N 51°30' W 002°42'0 0.0
2014-Nov-21 14:33N 51°30' W 002°42'0 0.0
2014-Nov-21 13:33N 51°30' W 002°42'0 0.0
2014-Nov-21 12:33N 51°30' W 002°42'0 0.0
2014-Nov-21 11:33N 51°30' W 002°42'0 0.0
2014-Nov-21 10:33N 51°30' W 002°42'0 0.0
2014-Nov-21 09:33N 51°30' W 002°42'0 0.0
2014-Nov-21 08:33N 51°30' W 002°42'0 0.0
2014-Nov-21 07:33N 51°30' W 002°42'0 0.0
2014-Nov-21 06:33N 51°30' W 002°42'0 0.0
2014-Nov-21 05:33N 51°30' W 002°42'1 0.6
2014-Nov-21 04:33N 51°31' W 002°43'1110.8
2014-Nov-21 03:33N 51°27' W 002°60'104 9.2
2014-Nov-20 16:17N 52°12' W 005°31'8913.2
2014-Nov-20 09:33N 53°40' W 005°53'1312.7
2014-Nov-20 08:33N 53°52' W 005°59'1111.1
2014-Nov-20 07:33N 54°02' W 006°08'3 0.3
2014-Nov-19 21:18N 54°04' W 006°12'911.2
2014-Nov-19 20:31N 53°59' W 006°01'18311.2
2014-Nov-19 04:12N 51°22' W 003°24'812.2
2014-Nov-19 03:33N 51°23' W 003°12'1211.9
2014-Nov-19 02:33N 51°27' W 002°54'8 7.6
2014-Nov-19 01:33N 51°30' W 002°43'0 0.3
2014-Nov-19 00:32N 51°30' W 002°42'0 0.0
2014-Nov-18 23:32N 51°30' W 002°42'0 0.0
2014-Nov-18 22:32N 51°30' W 002°42'0 0.0
2014-Nov-18 21:32N 51°30' W 002°42'0 0.0
2014-Nov-18 20:32N 51°30' W 002°42'0 0.0
2014-Nov-18 19:32N 51°30' W 002°42'0 0.0
2014-Nov-18 18:32N 51°30' W 002°42'1 0.6
2014-Nov-18 17:34N 51°30' W 002°43'10 9.1
2014-Nov-18 16:26N 51°27' W 002°59'1112.0
2014-Nov-18 15:33N 51°21' W 003°13'169 8.9
2014-Nov-17 20:31N 53°40' W 005°52'1313.2
2014-Nov-17 19:33N 53°52' W 005°58'1211.8
2014-Nov-17 18:32N 54°03' W 006°08'0 0.0
2014-Nov-16 18:18N 54°02' W 006°08'811.2
2014-Nov-16 17:33N 53°55' W 005°60'18110.5
2014-Nov-16 00:25N 51°22' W 003°23'1011.7
2014-Nov-15 23:34N 51°24' W 003°07'1211.5
2014-Nov-15 22:34N 51°29' W 002°50'5 4.9
2014-Nov-15 21:33N 51°30' W 002°42'0 0.2
2014-Nov-15 20:34N 51°30' W 002°42'0 0.0
2014-Nov-15 19:31N 51°30' W 002°42'0 0.0
2014-Nov-15 18:31N 51°30' W 002°42'0 0.0
2014-Nov-15 17:33N 51°30' W 002°42'0 0.0
2014-Nov-15 16:31N 51°30' W 002°42'0 0.0
2014-Nov-15 15:34N 51°30' W 002°42'0 0.0
2014-Nov-15 14:30N 51°30' W 002°42'0 0.0
2014-Nov-15 13:31N 51°30' W 002°42'0 0.0
2014-Nov-15 12:34N 51°30' W 002°42'0 0.0
2014-Nov-15 11:33N 51°30' W 002°42'0 0.0
2014-Nov-15 10:31N 51°30' W 002°42'0 0.0
2014-Nov-15 09:33N 51°30' W 002°42'0 0.0
2014-Nov-15 08:34N 51°30' W 002°42'0 0.0
2014-Nov-15 07:33N 51°30' W 002°42'0 0.0
2014-Nov-15 06:34N 51°30' W 002°42'0 0.0
2014-Nov-15 05:33N 51°30' W 002°42'0 0.0
2014-Nov-15 04:34N 51°30' W 002°42'0 0.0
2014-Nov-15 03:34N 51°30' W 002°42'0 0.0
2014-Nov-15 02:33N 51°30' W 002°42'0 0.0
2014-Nov-15 01:33N 51°30' W 002°42'0 0.0
2014-Nov-15 00:30N 51°30' W 002°42'0 0.0
2014-Nov-14 23:33N 51°30' W 002°42'0 0.0
2014-Nov-14 22:34N 51°30' W 002°42'0 0.4
2014-Nov-14 21:33N 51°30' W 002°43'7 6.7
2014-Nov-14 20:33N 51°28' W 002°53'1413.6
2014-Nov-14 19:33N 51°21' W 003°12'7 7.1
2014-Nov-14 18:33N 51°21' W 003°23'161 7.6
2014-Nov-13 21:12N 53°35' W 005°50'812.0
2014-Nov-13 20:33N 53°43' W 005°54'1211.8
2014-Nov-13 19:33N 53°54' W 005°59'1111.1
2014-Nov-13 18:33N 54°03' W 006°10'1 0.1
2014-Nov-12 20:33N 54°04' W 006°12'1111.4
2014-Nov-12 19:33N 53°55' W 005°60'18310.1
2014-Nov-12 01:33N 51°21' W 003°18'1414.2
2014-Nov-12 00:34N 51°27' W 002°57'9 9.4
2014-Nov-11 23:33N 51°30' W 002°42'0 0.3
2014-Nov-11 22:33N 51°30' W 002°42'0 0.0
2014-Nov-11 21:33N 51°30' W 002°42'  

Dump ship's entire track history